Idaho Falls Regional Airport
KIDA : now visible

Airfield :











YOU CAN JOIN US ON...

 
LOGIN :

Register | Disclaimer

   EN    FR    IT 

 









Legend :    VFR   Marginal VFR   IFR   Intensive IFR   Very Intensive IFR
Visi :
Ceiling :
>= 8 km
>= 3000ft
5 to 8 km
1000 to 3000 ft
1500m to 5 km
500 to 1000 ft
800 to 1500m
200 to 500 ft
< 800m
< 200 ft
Symbols :   Thunderstorms  Fog  Heavy snow  Heavy precipitations  Wind > 20 kt






- Airport Elevation : 4744 ft
- IATA code : IDA


KIDA - Idaho Falls Regional

CURRENT METAR :
  • 281753Z 20012G18KT 10SM SCT070 06/M04 A3007 RMK AO2 SLP190 T00561039 10056 21011 51009

EXPIRED METARs :
  • 281653Z 21012KT 10SM FEW060 03/M04 A3007 RMK AO2 SLP194 T00281039
  • 281553Z 21015KT 10SM SCT070 01/M04 A3006 RMK AO2 SLP192 T00111044
  • 281453Z 21013KT 10SM SCT085 00/M04 A3004 RMK AO2 SLP188 T00001044 53014

TAF KIDA
Valid from the 28 at 18:00 until the 29 at 18:00 UTC


281720Z 2818/2918 21010G20KT P6SM SCT070 OVC120
FM282000 22010KT P6SM VCSH SCT050 OVC120
FM290200 20005KT P6SM FEW050 BKN120



MET'MAP, your aeronautical weather chart ! - Copyright ORBIFLY December 2007 - Disclaimer

ORBIFLY MET'MAP TEAM :

Programming & Development : Alexandra Zaïnal
Concept & original design : Baudouin d'Aumeries
Assistance for programming : Marc-Olivier Méhu
Technical & hardware support : Manuel Goepfert

Contact : metmap@orbifly.com




SOURCES & CREDITS :

   NOAA       Earth
Advisory